Time;durP1;ratioP1;P1;durP2;ratioP2;P2;SDS_P1;SDS_P2;PMS_P1;PMS_P2;Temp;Humidity;BMP_temperature;BMP_pressure;BME280_temperature;BME280_humidity;BME280_pressure;Samples;Min_cycle;Max_cycle;Signal;HPM_P1;HPM_P2
2023/02/02 00:01:21;;;;;;;6.80;3.50;;;;;;;-128.00;-1.00;-1.00;101950;1251;1012287;-66
2023/02/02 00:03:50;;;;;;;8.30;4.00;;;;;;;-128.00;-1.00;-1.00;101861;1254;1010348;-67
2023/02/02 00:06:19;;;;;;;9.00;4.00;;;;;;;-128.00;-1.00;-1.00;101988;1252;1010904;-67
2023/02/02 00:08:48;;;;;;;7.20;4.20;;;;;;;-128.00;-1.00;-1.00;101991;1252;1012892;-67
2023/02/02 00:11:17;;;;;;;8.00;3.90;;;;;;;-128.00;-1.00;-1.00;102000;1250;1013178;-66
2023/02/02 00:13:45;;;;;;;5.60;3.80;;;;;;;-128.00;-1.00;-1.00;101799;1256;1014066;-64
2023/02/02 00:20:07;;;;;;;9.80;4.10;;;;;;;-128.00;-1.00;-1.00;101860;1250;1013272;-67
2023/02/02 00:22:36;;;;;;;8.80;4.30;;;;;;;-128.00;-1.00;-1.00;101920;1253;1015888;-67
2023/02/02 00:25:05;;;;;;;8.30;4.70;;;;;;;-128.00;-1.00;-1.00;101814;1256;1013281;-67
2023/02/02 00:27:33;;;;;;;6.50;4.00;;;;;;;-128.00;-1.00;-1.00;102129;1250;1014080;-68
2023/02/02 00:30:04;;;;;;;9.50;4.30;;;;;;;-128.00;-1.00;-1.00;101852;1251;1010447;-66
2023/02/02 00:32:34;;;;;;;8.00;4.40;;;;;;;-128.00;-1.00;-1.00;101868;1251;1011503;-67
2023/02/02 00:35:02;;;;;;;7.70;4.00;;;;;;;-128.00;-1.00;-1.00;101802;1250;1013281;-67
2023/02/02 00:37:31;;;;;;;6.10;4.30;;;;;;;-128.00;-1.00;-1.00;101898;1256;1012673;-67
2023/02/02 00:39:59;;;;;;;8.30;4.30;;;;;;;-128.00;-1.00;-1.00;101927;1250;1013242;-67
2023/02/02 00:42:28;;;;;;;6.00;4.10;;;;;;;-128.00;-1.00;-1.00;101869;1255;1012987;-67
2023/02/02 00:45:14;;;;;;;7.80;3.80;;;;;;;-128.00;-1.00;-1.00;101999;1252;1011830;-67
2023/02/02 00:47:44;;;;;;;6.90;4.00;;;;;;;-128.00;-1.00;-1.00;101872;1251;1012475;-67
2023/02/02 00:50:16;;;;;;;7.70;4.50;;;;;;;-128.00;-1.00;-1.00;101868;1250;1013289;-67
2023/02/02 00:52:46;;;;;;;8.70;4.20;;;;;;;-128.00;-1.00;-1.00;101914;1250;1014553;-66
2023/02/02 00:55:15;;;;;;;8.90;4.50;;;;;;;-128.00;-1.00;-1.00;102017;1250;1010491;-67
2023/02/02 00:57:44;;;;;;;6.90;4.10;;;;;;;-128.00;-1.00;-1.00;101917;1256;1011430;-67
2023/02/02 01:00:15;;;;;;;10.20;4.50;;;;;;;-128.00;-1.00;-1.00;101843;1256;1012549;-66
2023/02/02 01:02:44;;;;;;;9.70;4.30;;;;;;;-128.00;-1.00;-1.00;102221;1256;1012362;-67
2023/02/02 01:05:12;;;;;;;9.00;5.10;;;;;;;-128.00;-1.00;-1.00;101813;1253;1013062;-66
2023/02/02 01:07:42;;;;;;;8.30;4.50;;;;;;;-128.00;-1.00;-1.00;101965;1250;1010388;-67
2023/02/02 01:10:13;;;;;;;6.20;3.90;;;;;;;-128.00;-1.00;-1.00;101913;1256;1011174;-67
2023/02/02 01:12:44;;;;;;;7.30;4.50;;;;;;;-128.00;-1.00;-1.00;101947;1250;1012912;-67
2023/02/02 01:15:12;;;;;;;6.40;4.30;;;;;;;-128.00;-1.00;-1.00;101741;1250;1014026;-69
2023/02/02 01:17:41;;;;;;;7.30;4.20;;;;;;;-128.00;-1.00;-1.00;101796;1251;1013151;-66
2023/02/02 01:20:14;;;;;;;7.00;4.70;;;;;;;-128.00;-1.00;-1.00;102003;1253;1010520;-67
2023/02/02 01:22:44;;;;;;;8.00;4.50;;;;;;;-128.00;-1.00;-1.00;101907;1250;1014483;-68
2023/02/02 01:25:13;;;;;;;6.00;4.00;;;;;;;-128.00;-1.00;-1.00;101807;1256;1013367;-67
2023/02/02 01:27:42;;;;;;;8.60;4.20;;;;;;;-128.00;-1.00;-1.00;102068;1255;1013092;-68
2023/02/02 01:30:11;;;;;;;8.80;4.40;;;;;;;-128.00;-1.00;-1.00;101901;1251;1013659;-66
2023/02/02 01:32:39;;;;;;;9.80;5.20;;;;;;;-128.00;-1.00;-1.00;101894;1254;1011375;-68
2023/02/02 01:35:09;;;;;;;8.20;4.40;;;;;;;-128.00;-1.00;-1.00;101901;1254;1012053;-67
2023/02/02 01:37:38;;;;;;;8.00;4.50;;;;;;;-128.00;-1.00;-1.00;101867;1253;1016072;-68
2023/02/02 01:40:07;;;;;;;7.70;4.50;;;;;;;-128.00;-1.00;-1.00;101902;1251;1013534;-68
2023/02/02 01:42:36;;;;;;;8.30;4.20;;;;;;;-128.00;-1.00;-1.00;101847;1252;1013631;-68
2023/02/02 01:45:15;;;;;;;8.40;4.60;;;;;;;-128.00;-1.00;-1.00;101904;1250;1010449;-67
2023/02/02 01:47:51;;;;;;;9.90;4.60;;;;;;;-128.00;-1.00;-1.00;101760;1252;1011291;-66
2023/02/02 01:50:21;;;;;;;7.20;4.10;;;;;;;-128.00;-1.00;-1.00;101943;1250;1015679;-67
2023/02/02 01:52:50;;;;;;;9.80;4.80;;;;;;;-128.00;-1.00;-1.00;101902;1261;1013575;-67
2023/02/02 01:55:20;;;;;;;11.50;4.90;;;;;;;-128.00;-1.00;-1.00;101879;1250;1012143;-67
2023/02/02 01:58:10;;;;;;;7.60;4.60;;;;;;;-128.00;-1.00;-1.00;101783;1250;1010719;-66
2023/02/02 02:00:39;;;;;;;9.20;4.80;;;;;;;-128.00;-1.00;-1.00;101975;1252;1011772;-67
2023/02/02 02:03:11;;;;;;;10.00;5.00;;;;;;;-128.00;-1.00;-1.00;101974;1251;1013598;-67
2023/02/02 02:05:59;;;;;;;10.30;4.50;;;;;;;-128.00;-1.00;-1.00;101918;1250;1013851;-68
2023/02/02 02:08:48;;;;;;;8.60;3.80;;;;;;;-128.00;-1.00;-1.00;101962;1251;1014199;-68
2023/02/02 02:11:21;;;;;;;8.20;4.70;;;;;;;-128.00;-1.00;-1.00;101785;1251;1009705;-70
2023/02/02 02:16:45;;;;;;;;;;;;;;;-128.00;-1.00;-1.00;102087;1251;1013778;-67
2023/02/02 02:19:25;;;;;;;8.00;4.30;;;;;;;-128.00;-1.00;-1.00;101903;1251;1016213;-67
2023/02/02 02:28:08;;;;;;;8.60;4.70;;;;;;;-128.00;-1.00;-1.00;101788;1250;1011070;-69
2023/02/02 02:31:15;;;;;;;11.10;4.50;;;;;;;-128.00;-1.00;-1.00;102035;1250;1013651;-67
2023/02/02 02:34:06;;;;;;;6.90;4.40;;;;;;;-128.00;-1.00;-1.00;101878;1251;1014418;-67
2023/02/02 02:36:48;;;;;;;8.50;5.10;;;;;;;-128.00;-1.00;-1.00;101901;1251;1013149;-68
2023/02/02 02:39:31;;;;;;;8.10;4.80;;;;;;;-128.00;-1.00;-1.00;101847;1256;1010834;-67
2023/02/02 02:42:06;;;;;;;10.00;5.20;;;;;;;-128.00;-1.00;-1.00;102004;1256;1011009;-67
2023/02/02 02:44:37;;;;;;;7.90;4.40;;;;;;;-128.00;-1.00;-1.00;101922;1251;1016513;-68
2023/02/02 02:47:05;;;;;;;10.30;4.80;;;;;;;-128.00;-1.00;-1.00;101864;1251;1015168;-68
2023/02/02 02:49:46;;;;;;;9.00;4.50;;;;;;;-128.00;-1.00;-1.00;101911;1251;1015680;-71
2023/02/02 02:52:15;;;;;;;7.40;4.40;;;;;;;-128.00;-1.00;-1.00;101853;1256;1013123;-68
2023/02/02 02:54:45;;;;;;;9.80;5.20;;;;;;;-128.00;-1.00;-1.00;101767;1256;1011387;-68
2023/02/02 02:57:36;;;;;;;14.80;5.00;;;;;;;-128.00;-1.00;-1.00;102080;1250;1016093;-67
2023/02/02 03:00:23;;;;;;;9.70;5.10;;;;;;;-128.00;-1.00;-1.00;101905;1251;1016522;-69
2023/02/02 03:03:01;;;;;;;5.70;4.60;;;;;;;-128.00;-1.00;-1.00;101935;1251;1012667;-69
2023/02/02 03:05:36;;;;;;;7.50;4.10;;;;;;;-128.00;-1.00;-1.00;101884;1255;1012809;-70
2023/02/02 03:08:12;;;;;;;5.60;4.00;;;;;;;-128.00;-1.00;-1.00;101828;1250;1014114;-68
2023/02/02 03:10:41;;;;;;;7.70;4.30;;;;;;;-128.00;-1.00;-1.00;101887;1256;1012947;-69
2023/02/02 03:13:10;;;;;;;8.60;4.40;;;;;;;-128.00;-1.00;-1.00;102034;1256;1012700;-69
2023/02/02 03:15:40;;;;;;;7.50;4.50;;;;;;;-128.00;-1.00;-1.00;101843;1250;1013412;-70
2023/02/02 03:18:11;;;;;;;5.60;4.10;;;;;;;-128.00;-1.00;-1.00;101829;1253;1011508;-69
2023/02/02 03:20:39;;;;;;;9.60;4.90;;;;;;;-128.00;-1.00;-1.00;101780;1257;1011186;-68
2023/02/02 03:23:08;;;;;;;8.90;4.40;;;;;;;-128.00;-1.00;-1.00;101879;1251;1013726;-69
2023/02/02 03:25:36;;;;;;;8.30;4.60;;;;;;;-128.00;-1.00;-1.00;101861;1251;1012744;-68
2023/02/02 03:28:05;;;;;;;9.20;4.20;;;;;;;-128.00;-1.00;-1.00;101749;1254;1013135;-68
2023/02/02 03:30:33;;;;;;;7.40;5.20;;;;;;;-128.00;-1.00;-1.00;102066;1257;1010740;-68
2023/02/02 03:33:02;;;;;;;6.60;4.10;;;;;;;-128.00;-1.00;-1.00;102003;1255;1013568;-68
2023/02/02 03:35:30;;;;;;;9.10;4.30;;;;;;;-128.00;-1.00;-1.00;101880;1256;1016215;-68
2023/02/02 03:37:59;;;;;;;7.40;3.80;;;;;;;-128.00;-1.00;-1.00;101763;1251;1015006;-68
2023/02/02 03:40:27;;;;;;;7.90;4.20;;;;;;;-128.00;-1.00;-1.00;101832;1252;1012600;-69
2023/02/02 03:42:56;;;;;;;8.80;4.00;;;;;;;-128.00;-1.00;-1.00;101907;1256;1010429;-68
2023/02/02 03:45:27;;;;;;;6.30;4.20;;;;;;;-128.00;-1.00;-1.00;101829;1255;1011068;-68
2023/02/02 03:47:55;;;;;;;7.90;4.50;;;;;;;-128.00;-1.00;-1.00;101912;1250;1015601;-68
2023/02/02 03:50:24;;;;;;;7.50;4.10;;;;;;;-128.00;-1.00;-1.00;101852;1255;1013044;-69
2023/02/02 03:52:53;;;;;;;7.60;4.50;;;;;;;-128.00;-1.00;-1.00;101750;1263;1013603;-69
2023/02/02 03:55:22;;;;;;;4.80;4.10;;;;;;;-128.00;-1.00;-1.00;102007;1255;1013422;-68
2023/02/02 03:57:51;;;;;;;7.90;4.30;;;;;;;-128.00;-1.00;-1.00;102034;1251;1011765;-67
2023/02/02 04:00:20;;;;;;;9.20;3.90;;;;;;;-128.00;-1.00;-1.00;101816;1251;1012882;-67
2023/02/02 04:02:48;;;;;;;8.10;4.30;;;;;;;-128.00;-1.00;-1.00;101974;1251;1013353;-68
2023/02/02 04:05:17;;;;;;;6.20;4.20;;;;;;;-128.00;-1.00;-1.00;101837;1256;1015368;-67
2023/02/02 04:07:47;;;;;;;6.40;4.00;;;;;;;-128.00;-1.00;-1.00;102105;1253;1010248;-67
2023/02/02 04:10:17;;;;;;;6.90;4.40;;;;;;;-128.00;-1.00;-1.00;101839;1256;1010942;-70
2023/02/02 04:12:45;;;;;;;7.30;4.50;;;;;;;-128.00;-1.00;-1.00;101796;1252;1013630;-69
2023/02/02 04:15:14;;;;;;;9.30;3.80;;;;;;;-128.00;-1.00;-1.00;101837;1254;1012693;-68
2023/02/02 04:17:43;;;;;;;9.40;4.60;;;;;;;-128.00;-1.00;-1.00;101993;1256;1015050;-68
2023/02/02 04:20:11;;;;;;;5.90;3.90;;;;;;;-128.00;-1.00;-1.00;101871;1251;1009635;-67
2023/02/02 04:22:40;;;;;;;11.20;4.70;;;;;;;-128.00;-1.00;-1.00;101874;1256;1011139;-68
2023/02/02 04:25:08;;;;;;;7.30;4.70;;;;;;;-128.00;-1.00;-1.00;101978;1251;1013602;-68
2023/02/02 04:27:37;;;;;;;7.00;3.90;;;;;;;-128.00;-1.00;-1.00;101892;1254;1012852;-68
2023/02/02 04:30:06;;;;;;;6.50;4.30;;;;;;;-128.00;-1.00;-1.00;101782;1260;1015793;-67
2023/02/02 04:32:34;;;;;;;9.70;4.20;;;;;;;-128.00;-1.00;-1.00;101973;1256;1010380;-67
2023/02/02 04:35:03;;;;;;;6.70;4.30;;;;;;;-128.00;-1.00;-1.00;101861;1256;1012797;-66
2023/02/02 04:37:32;;;;;;;7.10;4.40;;;;;;;-128.00;-1.00;-1.00;102017;1254;1012899;-67
2023/02/02 04:40:00;;;;;;;8.00;4.10;;;;;;;-128.00;-1.00;-1.00;101985;1251;1013686;-65
2023/02/02 04:42:31;;;;;;;4.30;3.90;;;;;;;-128.00;-1.00;-1.00;101904;1251;1015533;-66
2023/02/02 04:44:59;;;;;;;6.00;4.00;;;;;;;-128.00;-1.00;-1.00;101840;1253;1010300;-65
2023/02/02 04:47:28;;;;;;;6.30;4.00;;;;;;;-128.00;-1.00;-1.00;101725;1251;1011838;-66
2023/02/02 04:49:56;;;;;;;8.10;4.40;;;;;;;-128.00;-1.00;-1.00;101881;1251;1013389;-66
2023/02/02 04:52:24;;;;;;;8.10;4.60;;;;;;;-128.00;-1.00;-1.00;101816;1254;1012985;-65
2023/02/02 04:54:53;;;;;;;5.50;4.00;;;;;;;-128.00;-1.00;-1.00;101745;1255;1015943;-66
2023/02/02 04:57:21;;;;;;;7.10;4.00;;;;;;;-128.00;-1.00;-1.00;101847;1256;1009893;-66
2023/02/02 04:59:50;;;;;;;5.50;4.00;;;;;;;-128.00;-1.00;-1.00;102154;1251;1012453;-65
2023/02/02 05:02:18;;;;;;;6.70;3.80;;;;;;;-128.00;-1.00;-1.00;102030;1256;1013297;-64
2023/02/02 05:04:47;;;;;;;6.60;3.80;;;;;;;-128.00;-1.00;-1.00;101843;1256;1015692;-64
2023/02/02 05:07:15;;;;;;;5.10;4.30;;;;;;;-128.00;-1.00;-1.00;101744;1251;1012999;-65
2023/02/02 05:09:44;;;;;;;7.80;4.40;;;;;;;-128.00;-1.00;-1.00;101865;1256;1010327;-68
2023/02/02 05:12:15;;;;;;;7.40;4.50;;;;;;;-128.00;-1.00;-1.00;101852;1261;1010878;-70
2023/02/02 05:14:43;;;;;;;6.70;4.20;;;;;;;-128.00;-1.00;-1.00;101778;1260;1013107;-67
2023/02/02 05:17:12;;;;;;;9.20;4.60;;;;;;;-128.00;-1.00;-1.00;101906;1254;1012570;-66
2023/02/02 05:19:41;;;;;;;6.80;4.50;;;;;;;-128.00;-1.00;-1.00;101990;1256;1012490;-64
2023/02/02 05:22:10;;;;;;;5.10;4.00;;;;;;;-128.00;-1.00;-1.00;101916;1256;1011254;-63
2023/02/02 05:24:38;;;;;;;6.90;4.60;;;;;;;-128.00;-1.00;-1.00;102240;1251;1010573;-63
2023/02/02 05:27:07;;;;;;;5.30;3.90;;;;;;;-128.00;-1.00;-1.00;102277;1253;1012936;-65
2023/02/02 05:29:35;;;;;;;7.40;4.20;;;;;;;-128.00;-1.00;-1.00;101896;1253;1013183;-63
2023/02/02 05:32:04;;;;;;;7.10;4.50;;;;;;;-128.00;-1.00;-1.00;101994;1252;1013816;-62
2023/02/02 05:34:34;;;;;;;8.30;4.80;;;;;;;-128.00;-1.00;-1.00;101968;1253;1013100;-62
2023/02/02 05:37:02;;;;;;;6.20;4.20;;;;;;;-128.00;-1.00;-1.00;101947;1262;1011494;-63
2023/02/02 05:39:31;;;;;;;8.20;4.70;;;;;;;-128.00;-1.00;-1.00;102095;1253;1015329;-62
2023/02/02 05:41:59;;;;;;;8.70;4.20;;;;;;;-128.00;-1.00;-1.00;101989;1256;1013732;-63
2023/02/02 05:44:28;;;;;;;6.60;4.10;;;;;;;-128.00;-1.00;-1.00;102091;1257;1013093;-64
2023/02/02 05:46:57;;;;;;;4.80;3.80;;;;;;;-128.00;-1.00;-1.00;102140;1251;1011328;-64
2023/02/02 05:49:25;;;;;;;8.20;4.30;;;;;;;-128.00;-1.00;-1.00;102097;1256;1011385;-65
2023/02/02 05:51:58;;;;;;;6.70;4.10;;;;;;;-128.00;-1.00;-1.00;101920;1251;1013277;-67
2023/02/02 05:54:26;;;;;;;5.30;4.10;;;;;;;-128.00;-1.00;-1.00;101744;1254;1013780;-66
2023/02/02 05:56:55;;;;;;;8.10;4.40;;;;;;;-128.00;-1.00;-1.00;101874;1251;1013029;-67
2023/02/02 05:59:28;;;;;;;7.60;4.80;;;;;;;-128.00;-1.00;-1.00;101778;1255;1010438;-62
2023/02/02 06:01:56;;;;;;;6.10;4.40;;;;;;;-128.00;-1.00;-1.00;101740;1251;1010814;-62
2023/02/02 06:04:25;;;;;;;10.20;4.50;;;;;;;-128.00;-1.00;-1.00;101766;1251;1015860;-68
2023/02/02 06:06:53;;;;;;;7.70;4.70;;;;;;;-128.00;-1.00;-1.00;101884;1251;1013223;-69
2023/02/02 06:09:22;;;;;;;6.40;4.50;;;;;;;-128.00;-1.00;-1.00;101836;1251;1013860;-63
2023/02/02 06:11:51;;;;;;;5.10;4.20;;;;;;;-128.00;-1.00;-1.00;101687;1261;1013258;-67
2023/02/02 06:14:19;;;;;;;8.30;4.80;;;;;;;-128.00;-1.00;-1.00;101812;1252;1011213;-69
2023/02/02 06:16:48;;;;;;;6.50;4.40;;;;;;;-128.00;-1.00;-1.00;101926;1251;1015381;-68
2023/02/02 06:19:17;;;;;;;6.10;4.20;;;;;;;-128.00;-1.00;-1.00;101809;1254;1012887;-68
2023/02/02 06:21:46;;;;;;;5.80;4.50;;;;;;;-128.00;-1.00;-1.00;101747;1254;1013701;-63
2023/02/02 06:24:15;;;;;;;7.80;4.70;;;;;;;-128.00;-1.00;-1.00;102041;1251;1010289;-63
2023/02/02 06:26:43;;;;;;;6.80;5.00;;;;;;;-128.00;-1.00;-1.00;101883;1252;1011503;-64
2023/02/02 06:29:12;;;;;;;9.10;4.80;;;;;;;-128.00;-1.00;-1.00;102012;1251;1012788;-62
2023/02/02 06:31:41;;;;;;;8.50;5.00;;;;;;;-128.00;-1.00;-1.00;101735;1256;1012530;-63
2023/02/02 06:34:12;;;;;;;9.60;4.80;;;;;;;-128.00;-1.00;-1.00;102053;1254;1013371;-64
2023/02/02 06:36:40;;;;;;;7.00;4.60;;;;;;;-128.00;-1.00;-1.00;101872;1251;1009682;-61
2023/02/02 06:39:09;;;;;;;6.00;4.30;;;;;;;-128.00;-1.00;-1.00;101786;1254;1011352;-61
2023/02/02 06:41:39;;;;;;;10.20;5.10;;;;;;;-128.00;-1.00;-1.00;101949;1252;1016087;-61
2023/02/02 06:44:07;;;;;;;6.80;5.20;;;;;;;-128.00;-1.00;-1.00;101882;1251;1013760;-61
2023/02/02 06:46:36;;;;;;;9.30;4.80;;;;;;;-128.00;-1.00;-1.00;101911;1254;1013713;-61
2023/02/02 06:49:05;;;;;;;5.10;4.60;;;;;;;-128.00;-1.00;-1.00;101824;1254;1009821;-61
2023/02/02 06:51:35;;;;;;;7.90;5.40;;;;;;;-128.00;-1.00;-1.00;102170;1254;1012972;-62
2023/02/02 06:54:03;;;;;;;7.80;4.90;;;;;;;-128.00;-1.00;-1.00;101932;1252;1016204;-64
2023/02/02 06:56:32;;;;;;;7.90;5.10;;;;;;;-128.00;-1.00;-1.00;102240;1250;1013744;-63
2023/02/02 06:59:01;;;;;;;7.90;4.90;;;;;;;-128.00;-1.00;-1.00;102174;1251;1013100;-64
2023/02/02 07:01:31;;;;;;;6.10;4.90;;;;;;;-128.00;-1.00;-1.00;102115;1251;1010940;-65
2023/02/02 07:04:00;;;;;;;6.80;4.50;;;;;;;-128.00;-1.00;-1.00;101968;1255;1011198;-63
2023/02/02 07:06:28;;;;;;;5.00;4.30;;;;;;;-128.00;-1.00;-1.00;102339;1251;1015634;-66
2023/02/02 07:08:57;;;;;;;6.40;4.50;;;;;;;-128.00;-1.00;-1.00;101893;1251;1016038;-65
2023/02/02 07:11:31;;;;;;;5.60;4.90;;;;;;;-128.00;-1.00;-1.00;102053;1250;1012435;-66
2023/02/02 07:14:03;;;;;;;5.90;4.80;;;;;;;-128.00;-1.00;-1.00;101930;1251;1009951;-60
2023/02/02 07:16:32;;;;;;;8.20;5.00;;;;;;;-128.00;-1.00;-1.00;102327;1256;1011862;-60
2023/02/02 07:19:01;;;;;;;6.80;5.20;;;;;;;-128.00;-1.00;-1.00;102125;1250;1015612;-63
2023/02/02 07:21:34;;;;;;;7.50;5.30;;;;;;;-128.00;-1.00;-1.00;102201;1251;1014197;-60
2023/02/02 07:24:04;;;;;;;7.40;4.70;;;;;;;-128.00;-1.00;-1.00;101936;1251;1013167;-67
2023/02/02 07:26:34;;;;;;;6.00;4.50;;;;;;;-128.00;-1.00;-1.00;102196;1250;1009790;-68
2023/02/02 07:29:03;;;;;;;7.10;4.60;;;;;;;-128.00;-1.00;-1.00;102065;1254;1013530;-67
2023/02/02 07:31:31;;;;;;;6.20;4.80;;;;;;;-128.00;-1.00;-1.00;102184;1251;1012876;-68
2023/02/02 07:34:04;;;;;;;6.10;4.70;;;;;;;-128.00;-1.00;-1.00;102260;1252;1015361;-67
2023/02/02 07:36:32;;;;;;;5.90;4.90;;;;;;;-128.00;-1.00;-1.00;102202;1254;1013009;-68
2023/02/02 07:39:03;;;;;;;7.20;5.00;;;;;;;-128.00;-1.00;-1.00;102007;1253;1010623;-69
2023/02/02 07:41:34;;;;;;;13.50;6.40;;;;;;;-128.00;-1.00;-1.00;101893;1251;1014390;-69
2023/02/02 07:44:03;;;;;;;7.80;4.50;;;;;;;-128.00;-1.00;-1.00;102019;1251;1013234;-70
2023/02/02 07:46:32;;;;;;;8.70;5.70;;;;;;;-128.00;-1.00;-1.00;102193;1251;1013679;-72
2023/02/02 07:49:00;;;;;;;6.30;5.30;;;;;;;-128.00;-1.00;-1.00;102218;1249;1013104;-70
2023/02/02 07:51:31;;;;;;;10.30;5.60;;;;;;;-128.00;-1.00;-1.00;101957;1251;1010861;-70
2023/02/02 07:53:59;;;;;;;8.10;5.50;;;;;;;-128.00;-1.00;-1.00;101954;1257;1011250;-69
2023/02/02 07:56:28;;;;;;;7.50;5.50;;;;;;;-128.00;-1.00;-1.00;101977;1256;1012791;-69
2023/02/02 07:58:57;;;;;;;6.90;5.40;;;;;;;-128.00;-1.00;-1.00;101941;1251;1015608;-68
2023/02/02 08:01:26;;;;;;;6.70;5.10;;;;;;;-128.00;-1.00;-1.00;101945;1253;1015472;-68
2023/02/02 08:03:56;;;;;;;6.10;4.90;;;;;;;-128.00;-1.00;-1.00;102319;1249;1010386;-71
2023/02/02 08:06:30;;;;;;;5.50;4.70;;;;;;;-128.00;-1.00;-1.00;102113;1254;1010759;-70
2023/02/02 08:08:59;;;;;;;5.40;4.40;;;;;;;-128.00;-1.00;-1.00;102045;1264;1012956;-70
2023/02/02 08:11:27;;;;;;;5.40;4.60;;;;;;;-128.00;-1.00;-1.00;101955;1251;1012808;-68
2023/02/02 08:13:57;;;;;;;5.10;4.60;;;;;;;-128.00;-1.00;-1.00;102073;1251;1013019;-69
2023/02/02 08:16:27;;;;;;;5.00;4.50;;;;;;;-128.00;-1.00;-1.00;101938;1251;1010949;-69
2023/02/02 08:18:56;;;;;;;5.60;4.30;;;;;;;-128.00;-1.00;-1.00;101829;1256;1011219;-68
2023/02/02 08:21:24;;;;;;;5.20;4.40;;;;;;;-128.00;-1.00;-1.00;101692;1252;1013529;-67
2023/02/02 08:23:53;;;;;;;4.10;3.70;;;;;;;-128.00;-1.00;-1.00;101775;1256;1015634;-70
2023/02/02 08:26:23;;;;;;;5.90;4.90;;;;;;;-128.00;-1.00;-1.00;101773;1258;1015951;-67
2023/02/02 08:28:54;;;;;;;5.40;4.80;;;;;;;-128.00;-1.00;-1.00;102050;1251;1010521;-65
2023/02/02 08:31:30;;;;;;;6.80;4.90;;;;;;;-128.00;-1.00;-1.00;101932;1251;1010469;-65
2023/02/02 08:33:59;;;;;;;5.80;4.70;;;;;;;-128.00;-1.00;-1.00;101799;1256;1012851;-64
2023/02/02 08:36:28;;;;;;;4.50;4.00;;;;;;;-128.00;-1.00;-1.00;101844;1251;1012565;-65
2023/02/02 08:39:05;;;;;;;4.50;4.10;;;;;;;-128.00;-1.00;-1.00;101863;1257;1014907;-66
2023/02/02 08:41:35;;;;;;;5.20;4.60;;;;;;;-128.00;-1.00;-1.00;101786;1251;1010147;-66
2023/02/02 08:44:05;;;;;;;6.90;4.70;;;;;;;-128.00;-1.00;-1.00;101799;1251;1014398;-64
2023/02/02 08:46:39;;;;;;;6.00;4.60;;;;;;;-128.00;-1.00;-1.00;102079;1251;1013187;-65
2023/02/02 08:49:09;;;;;;;4.80;4.20;;;;;;;-128.00;-1.00;-1.00;101835;1251;1012548;-64
2023/02/02 08:51:38;;;;;;;5.50;5.00;;;;;;;-128.00;-1.00;-1.00;101813;1254;1016019;-61
2023/02/02 08:54:06;;;;;;;6.60;5.00;;;;;;;-128.00;-1.00;-1.00;101989;1251;1010688;-66
2023/02/02 08:56:35;;;;;;;5.40;4.70;;;;;;;-128.00;-1.00;-1.00;102071;1256;1011081;-65
2023/02/02 08:59:04;;;;;;;5.20;4.40;;;;;;;-128.00;-1.00;-1.00;101984;1256;1013051;-64
2023/02/02 09:01:33;;;;;;;5.10;4.60;;;;;;;-128.00;-1.00;-1.00;101709;1251;1015210;-64
2023/02/02 09:04:06;;;;;;;5.00;4.40;;;;;;;-128.00;-1.00;-1.00;101786;1257;1015747;-67
2023/02/02 09:06:37;;;;;;;5.20;4.60;;;;;;;-128.00;-1.00;-1.00;102102;1252;1012940;-69
2023/02/02 09:09:10;;;;;;;5.40;4.90;;;;;;;-128.00;-1.00;-1.00;102128;1251;1011480;-68
2023/02/02 09:11:39;;;;;;;5.00;4.40;;;;;;;-128.00;-1.00;-1.00;102143;1254;1013770;-66
2023/02/02 09:14:12;;;;;;;5.00;4.50;;;;;;;-128.00;-1.00;-1.00;102574;1251;1013659;-66
2023/02/02 09:16:40;;;;;;;5.30;4.80;;;;;;;-128.00;-1.00;-1.00;102516;1251;1013512;-68
2023/02/02 09:19:10;;;;;;;5.10;4.50;;;;;;;-128.00;-1.00;-1.00;102274;1251;1010858;-67
2023/02/02 09:21:39;;;;;;;7.60;4.90;;;;;;;-128.00;-1.00;-1.00;102218;1257;1011218;-67
2023/02/02 09:24:11;;;;;;;6.20;5.10;;;;;;;-128.00;-1.00;-1.00;101870;1261;1012534;-66
2023/02/02 09:26:41;;;;;;;5.40;4.30;;;;;;;-128.00;-1.00;-1.00;101929;1251;1012468;-68
2023/02/02 09:29:12;;;;;;;5.80;4.80;;;;;;;-128.00;-1.00;-1.00;102054;1254;1013728;-67
2023/02/02 09:31:41;;;;;;;4.80;4.40;;;;;;;-128.00;-1.00;-1.00;101868;1253;1012333;-66
2023/02/02 09:34:10;;;;;;;6.60;4.60;;;;;;;-128.00;-1.00;-1.00;101904;1254;1011086;-68
2023/02/02 09:36:39;;;;;;;5.20;4.70;;;;;;;-128.00;-1.00;-1.00;101974;1253;1013061;-67
2023/02/02 09:39:11;;;;;;;4.80;4.40;;;;;;;-128.00;-1.00;-1.00;102002;1251;1012461;-67
2023/02/02 09:41:40;;;;;;;4.80;4.40;;;;;;;-128.00;-1.00;-1.00;101702;1255;1015991;-66
2023/02/02 09:44:36;;;;;;;4.60;4.20;;;;;;;-128.00;-1.00;-1.00;101764;1251;1012815;-67
2023/02/02 09:47:07;;;;;;;4.90;4.10;;;;;;;-128.00;-1.00;-1.00;101761;1251;1011238;-67
2023/02/02 09:50:15;;;;;;;5.10;4.60;;;;;;;-128.00;-1.00;-1.00;101808;1257;1012970;-68
2023/02/02 09:52:48;;;;;;;5.20;4.70;;;;;;;-128.00;-1.00;-1.00;101565;1251;1015782;-68
2023/02/02 13:46:41;;;;;;;5.50;4.80;;;;;;;3.06;100.00;98728.87;102322;1293;601279;-66
2023/02/02 13:49:13;;;;;;;;;;;;;;;3.75;100.00;98729.05;103889;1263;60584;-68
2023/02/02 13:51:50;;;;;;;9.40;7.00;;;;;;;3.93;100.00;98728.34;104165;1262;59382;-66
2023/02/02 13:54:34;;;;;;;8.80;7.40;;;;;;;4.08;100.00;98726.50;104018;1260;71266;-67
2023/02/02 13:57:12;;;;;;;7.40;6.40;;;;;;;4.17;100.00;98731.58;104050;1257;69330;-66
2023/02/02 13:59:49;;;;;;;7.70;6.70;;;;;;;4.26;100.00;98730.61;103871;1261;261853;-65
2023/02/02 14:02:58;;;;;;;8.00;7.20;;;;;;;4.35;100.00;98730.67;104517;1259;60536;-67
2023/02/02 14:05:27;;;;;;;9.00;7.40;;;;;;;4.44;100.00;98729.31;104278;1257;60076;-65
2023/02/02 14:08:07;;;;;;;11.30;8.10;;;;;;;4.49;100.00;98725.72;104313;1257;72447;-65
2023/02/02 14:10:38;;;;;;;10.30;8.80;;;;;;;4.54;100.00;98730.24;104299;1258;69171;-65
2023/02/02 14:16:02;;;;;;;9.30;7.50;;;;;;;4.62;100.00;98731.89;104293;1256;60626;-64
2023/02/02 14:18:55;;;;;;;10.70;7.00;;;;;;;4.64;100.00;98731.28;104315;1259;60934;-63
2023/02/02 14:21:32;;;;;;;8.10;7.00;;;;;;;4.64;100.00;98733.21;104264;1259;72087;-63
2023/02/02 14:24:04;;;;;;;7.20;6.50;;;;;;;4.65;100.00;98738.53;104161;1267;69908;-63
2023/02/02 14:26:42;;;;;;;6.30;5.60;;;;;;;4.65;100.00;98736.63;104129;1260;72066;-64
2023/02/02 14:31:57;;;;;;;6.70;6.20;;;;;;;4.62;100.00;98737.94;104334;1259;59883;-64
2023/02/02 14:34:25;;;;;;;8.00;6.90;;;;;;;4.62;100.00;98740.04;104279;1259;72956;-68
2023/02/02 14:36:58;;;;;;;8.30;7.20;;;;;;;4.64;100.00;98736.86;104346;1257;70712;-64
2023/02/02 14:39:29;;;;;;;7.90;6.10;;;;;;;4.67;100.00;98741.09;104282;1265;72808;-63
2023/02/02 14:45:09;;;;;;;8.40;6.20;;;;;;;4.69;100.00;98744.17;103829;1267;59972;-65
2023/02/02 14:47:44;;;;;;;6.20;5.60;;;;;;;4.71;100.00;98746.02;104286;1259;73058;-65
2023/02/02 14:50:38;;;;;;;6.60;5.50;;;;;;;4.71;100.00;98750.50;104292;1257;68981;-65
2023/02/02 14:53:25;;;;;;;7.10;6.00;;;;;;;4.70;100.00;98754.88;104381;1259;73071;-65
2023/02/02 14:56:08;;;;;;;6.70;6.00;;;;;;;4.71;100.00;98757.61;104455;1259;61225;-65
2023/02/02 14:58:38;;;;;;;6.20;5.40;;;;;;;4.72;100.00;98761.75;104401;1257;59793;-65
2023/02/02 15:01:29;;;;;;;10.70;8.70;;;;;;;4.76;100.00;98763.03;104611;1259;72429;-66
2023/02/02 15:04:16;;;;;;;9.70;7.70;;;;;;;4.75;100.00;98771.39;104588;1255;69774;-66
2023/02/02 15:06:44;;;;;;;8.00;7.20;;;;;;;4.71;100.00;98775.34;104608;1271;72222;-65
2023/02/02 15:09:25;;;;;;;6.90;6.20;;;;;;;4.68;100.00;98777.70;104559;1259;60950;-64
2023/02/02 15:11:58;;;;;;;6.70;6.10;;;;;;;4.65;100.00;98783.16;104654;1256;59724;-61
2023/02/02 15:14:31;;;;;;;7.50;6.40;;;;;;;4.63;100.00;98786.34;104326;1256;72344;-60
2023/02/02 15:17:25;;;;;;;8.60;6.40;;;;;;;4.61;100.00;98788.15;104789;1254;68776;-63
2023/02/02 15:20:12;;;;;;;8.40;6.60;;;;;;;4.59;100.00;98789.63;104634;1254;73386;-63
2023/02/02 15:22:47;;;;;;;8.70;6.90;;;;;;;4.55;100.00;98793.05;104752;1254;61329;-66
2023/02/02 15:25:42;;;;;;;7.80;6.90;;;;;;;4.52;100.00;98797.13;104760;1250;59724;-64
2023/02/02 15:28:20;;;;;;;11.50;7.30;;;;;;;4.44;100.00;98801.52;104514;1250;72054;-64
2023/02/02 15:30:50;;;;;;;7.50;6.70;;;;;;;4.38;100.00;98799.13;104958;1250;69554;-63
2023/02/02 15:33:27;;;;;;;8.00;6.30;;;;;;;4.29;100.00;98805.29;104623;1256;72248;-62
2023/02/02 15:35:57;;;;;;;8.20;7.20;;;;;;;4.24;100.00;98808.40;104534;1262;60896;-63
2023/02/02 15:38:32;;;;;;;8.30;7.50;;;;;;;4.19;100.00;98807.17;105012;1252;60239;-62
2023/02/02 15:41:19;;;;;;;16.20;10.80;;;;;;;4.12;100.00;98807.91;105050;1254;73246;-63
2023/02/02 15:43:48;;;;;;;15.90;10.40;;;;;;;4.08;100.00;98805.06;104433;1250;69113;-68
2023/02/02 15:46:25;;;;;;;18.70;11.50;;;;;;;4.06;100.00;98807.20;104555;1253;71918;-65
2023/02/02 15:49:33;;;;;;;14.70;10.30;;;;;;;4.04;100.00;98812.31;104472;1262;61416;-64
2023/02/02 15:52:18;;;;;;;11.40;9.10;;;;;;;3.98;100.00;98812.28;104299;1262;60054;-64
2023/02/02 15:54:50;;;;;;;12.00;9.10;;;;;;;3.96;100.00;98815.83;104182;1261;71661;-64